createdAt,value
2022-12-08T00:00:05.284Z,26.70
2022-12-08T00:01:05.453Z,25.20
2022-12-08T00:02:05.747Z,22.60
2022-12-08T00:03:05.872Z,29.70
2022-12-08T00:04:05.867Z,21.90
2022-12-08T00:05:06.398Z,22.30
2022-12-08T00:06:06.131Z,22.40
2022-12-08T00:07:06.311Z,24.40
2022-12-08T00:08:06.547Z,20.40
2022-12-08T00:09:06.621Z,23.60
2022-12-08T00:10:25.097Z,23.70
2022-12-08T00:11:07.903Z,49.90
2022-12-08T00:12:07.053Z,26.10
2022-12-08T00:13:07.245Z,24.30
2022-12-08T00:14:07.400Z,25.10
2022-12-08T00:15:07.569Z,21.80
2022-12-08T00:16:07.837Z,25.10
2022-12-08T00:17:08.008Z,19.70
2022-12-08T00:18:08.097Z,26.70
2022-12-08T00:19:08.262Z,22.90
2022-12-08T00:20:08.430Z,29.00
2022-12-08T00:21:08.592Z,23.60
2022-12-08T00:22:08.769Z,23.40
2022-12-08T00:23:08.969Z,20.10
2022-12-08T00:24:09.135Z,17.80
2022-12-08T00:25:09.330Z,20.80
2022-12-08T00:26:09.465Z,15.70
2022-12-08T00:27:09.635Z,22.10
2022-12-08T00:28:09.797Z,21.60
2022-12-08T00:29:14.482Z,20.90
2022-12-08T00:30:11.063Z,20.90
2022-12-08T00:31:10.220Z,21.50
2022-12-08T00:32:10.463Z,20.80
2022-12-08T00:33:10.508Z,20.60
2022-12-08T00:34:10.670Z,19.00
2022-12-08T00:35:10.827Z,21.50
2022-12-08T00:36:10.990Z,23.10
2022-12-08T00:37:11.155Z,21.70
2022-12-08T00:38:11.319Z,20.60
2022-12-08T00:39:11.482Z,19.90
2022-12-08T00:40:11.632Z,23.80
2022-12-08T00:41:11.791Z,22.60
2022-12-08T00:42:11.980Z,22.10
2022-12-08T00:43:12.164Z,21.50
2022-12-08T00:44:12.329Z,23.00
2022-12-08T00:45:12.513Z,22.30
2022-12-08T00:46:12.699Z,22.40
2022-12-08T00:47:12.746Z,19.70
2022-12-08T00:48:12.942Z,24.90
2022-12-08T00:49:13.099Z,23.10
2022-12-08T00:50:13.260Z,23.90
2022-12-08T00:51:13.412Z,23.80
2022-12-08T00:52:13.578Z,24.60
2022-12-08T00:53:13.752Z,28.20
2022-12-08T00:54:13.928Z,23.40
2022-12-08T00:55:14.088Z,26.90
2022-12-08T00:56:14.263Z,27.20
2022-12-08T00:57:14.429Z,25.60
2022-12-08T00:58:14.601Z,24.60
2022-12-08T00:59:14.756Z,23.50
2022-12-08T01:00:14.917Z,24.40
2022-12-08T01:01:15.203Z,26.40
2022-12-08T01:02:15.267Z,25.30
2022-12-08T01:03:15.500Z,22.10
2022-12-08T01:04:15.552Z,22.70
2022-12-08T01:05:15.699Z,27.90
2022-12-08T01:06:15.867Z,23.60
2022-12-08T01:07:16.018Z,21.70
2022-12-08T01:08:16.262Z,20.90
2022-12-08T01:09:16.315Z,24.10
2022-12-08T01:10:16.477Z,19.70
2022-12-08T01:11:16.629Z,25.20
2022-12-08T01:12:16.803Z,20.60
2022-12-08T01:13:16.979Z,22.70
2022-12-08T01:14:17.137Z,24.00
2022-12-08T01:15:17.294Z,19.10
2022-12-08T01:16:17.496Z,21.10
2022-12-08T01:17:17.634Z,23.50
2022-12-08T01:18:17.810Z,20.90
2022-12-08T01:19:18.283Z,22.30
2022-12-08T01:20:18.169Z,24.10
2022-12-08T01:21:18.310Z,23.70
2022-12-08T01:22:18.477Z,24.90
2022-12-08T01:23:18.659Z,21.80
2022-12-08T01:24:18.828Z,27.30
2022-12-08T01:25:18.978Z,22.70
2022-12-08T01:26:19.138Z,24.90
2022-12-08T01:27:19.279Z,24.10
2022-12-08T01:28:19.451Z,29.60
2022-12-08T01:29:19.610Z,29.00
2022-12-08T01:30:19.783Z,27.70
2022-12-08T01:31:20.042Z,27.90
2022-12-08T01:32:20.057Z,28.00
2022-12-08T01:33:20.217Z,26.80
2022-12-08T01:34:20.381Z,29.90
2022-12-08T01:35:20.529Z,30.10
2022-12-08T01:36:20.701Z,27.90
2022-12-08T01:37:20.853Z,24.20
2022-12-08T01:38:21.025Z,29.60
2022-12-08T01:39:21.187Z,29.40
2022-12-08T01:40:21.353Z,28.60
2022-12-08T01:41:21.517Z,29.30
2022-12-08T01:42:21.673Z,31.00
2022-12-08T01:43:21.853Z,28.60
2022-12-08T01:44:22.025Z,29.00
2022-12-08T01:45:22.174Z,31.10
2022-12-08T01:46:22.413Z,28.80
2022-12-08T01:47:22.481Z,32.80
2022-12-08T01:48:22.705Z,33.80
2022-12-08T01:49:22.755Z,30.30
2022-12-08T01:50:22.921Z,29.90
2022-12-08T01:51:23.084Z,31.50
2022-12-08T01:52:23.738Z,31.10
2022-12-08T01:53:23.481Z,32.90
2022-12-08T01:54:23.642Z,30.60
2022-12-08T01:55:23.788Z,30.60
2022-12-08T01:56:23.961Z,31.90
2022-12-08T01:57:24.097Z,36.60
2022-12-08T01:58:24.292Z,30.80
2022-12-08T01:59:24.442Z,41.10
2022-12-08T02:00:24.610Z,38.00
2022-12-08T02:01:24.802Z,32.00
2022-12-08T02:02:24.972Z,39.40
2022-12-08T02:03:25.124Z,41.60
2022-12-08T02:04:25.295Z,41.80
2022-12-08T02:05:25.455Z,40.80
2022-12-08T02:06:25.626Z,39.20
2022-12-08T02:07:25.796Z,41.70
2022-12-08T02:08:26.072Z,41.10
2022-12-08T02:09:26.149Z,44.50
2022-12-08T02:10:26.342Z,43.80
2022-12-08T02:11:26.524Z,43.90
2022-12-08T02:12:26.707Z,46.50
2022-12-08T02:13:26.866Z,44.60
2022-12-08T02:14:27.023Z,41.20
2022-12-08T02:15:27.193Z,48.60
2022-12-08T02:16:27.401Z,44.60
2022-12-08T02:17:27.546Z,44.50
2022-12-08T02:18:27.752Z,39.60
2022-12-08T02:19:31.811Z,45.00
2022-12-08T02:20:28.075Z,46.20
2022-12-08T02:21:28.231Z,45.60
2022-12-08T02:22:28.391Z,45.10
2022-12-08T02:23:28.562Z,41.30
2022-12-08T02:24:28.746Z,41.70
2022-12-08T02:25:28.912Z,44.70
2022-12-08T02:26:29.081Z,43.90
2022-12-08T02:27:29.230Z,39.50
2022-12-08T02:28:29.413Z,38.40
2022-12-08T02:29:29.561Z,42.50
2022-12-08T02:30:29.766Z,44.60
2022-12-08T02:31:29.973Z,39.10
2022-12-08T02:32:30.056Z,40.70
2022-12-08T02:33:30.221Z,43.30
2022-12-08T02:34:30.384Z,40.20
2022-12-08T02:35:30.544Z,45.70
2022-12-08T02:36:30.710Z,47.60
2022-12-08T02:37:30.857Z,44.40
2022-12-08T02:38:31.025Z,44.80
2022-12-08T02:39:31.179Z,42.40
2022-12-08T02:40:31.332Z,43.40
2022-12-08T02:41:31.485Z,42.40
2022-12-08T02:42:31.651Z,42.70
2022-12-08T02:43:31.816Z,41.00
2022-12-08T02:44:31.979Z,41.00
2022-12-08T02:45:32.138Z,40.90
2022-12-08T02:46:32.346Z,39.90
2022-12-08T02:47:32.415Z,41.50
2022-12-08T02:48:32.581Z,40.40
2022-12-08T02:49:32.752Z,42.30
2022-12-08T02:50:32.911Z,41.80
2022-12-08T02:51:33.051Z,40.80
2022-12-08T02:52:33.225Z,41.80
2022-12-08T02:53:33.378Z,39.80
2022-12-08T02:54:33.548Z,38.00
2022-12-08T02:55:33.698Z,41.70
2022-12-08T02:56:33.866Z,43.20
2022-12-08T02:57:34.036Z,39.30
2022-12-08T02:58:34.216Z,45.00
2022-12-08T02:59:34.379Z,41.70
2022-12-08T03:00:34.555Z,38.70
2022-12-08T03:01:34.774Z,40.10
2022-12-08T03:02:34.886Z,42.50
2022-12-08T03:03:35.058Z,38.50
2022-12-08T03:04:35.219Z,43.10
2022-12-08T03:05:35.393Z,42.20
2022-12-08T03:06:35.567Z,43.50
2022-12-08T03:07:35.807Z,43.30
2022-12-08T03:08:35.956Z,40.60
2022-12-08T03:09:36.115Z,40.80
2022-12-08T03:10:36.288Z,37.10
2022-12-08T03:11:36.462Z,56.70
2022-12-08T03:12:36.633Z,35.90
2022-12-08T03:13:36.804Z,40.20
2022-12-08T03:14:36.964Z,39.30
2022-12-08T03:15:37.174Z,42.00
2022-12-08T03:16:37.333Z,38.60
2022-12-08T03:17:37.481Z,39.70
2022-12-08T03:18:37.652Z,41.90
2022-12-08T03:19:37.796Z,34.50
2022-12-08T03:20:37.960Z,36.90
2022-12-08T03:21:38.110Z,37.70
2022-12-08T03:22:38.275Z,36.30
2022-12-08T03:23:38.446Z,39.00
2022-12-08T03:24:38.611Z,35.90
2022-12-08T03:25:38.759Z,38.80
2022-12-08T03:26:38.917Z,36.10
2022-12-08T03:27:39.077Z,43.00
2022-12-08T03:28:39.251Z,40.10
2022-12-08T03:29:39.396Z,43.40
2022-12-08T03:30:39.644Z,46.20
2022-12-08T03:31:39.792Z,43.40
2022-12-08T03:32:39.855Z,41.70
2022-12-08T03:33:40.032Z,48.40
2022-12-08T03:34:40.248Z,43.80
2022-12-08T03:35:40.373Z,46.60
2022-12-08T03:36:40.536Z,47.50
2022-12-08T03:37:40.705Z,46.70
2022-12-08T03:38:40.883Z,48.70
2022-12-08T03:39:41.054Z,48.50
2022-12-08T03:40:41.223Z,46.90
2022-12-08T03:41:41.373Z,47.80
2022-12-08T03:42:41.568Z,51.70
2022-12-08T03:43:41.733Z,52.90
2022-12-08T03:44:41.914Z,51.80
2022-12-08T03:45:42.084Z,51.40
2022-12-08T03:46:42.266Z,60.20
2022-12-08T03:47:42.435Z,55.90
2022-12-08T03:48:42.616Z,55.70
2022-12-08T03:49:42.781Z,60.50
2022-12-08T03:50:42.951Z,57.40
2022-12-08T03:51:43.109Z,62.70
2022-12-08T03:52:43.277Z,61.60
2022-12-08T03:53:43.477Z,65.20
2022-12-08T03:54:43.646Z,65.20
2022-12-08T03:55:43.803Z,66.70
2022-12-08T03:56:51.016Z,75.60
2022-12-08T03:57:44.159Z,74.50
2022-12-08T03:58:44.318Z,69.20
2022-12-08T03:59:44.492Z,75.40
2022-12-08T04:00:44.680Z,83.00
2022-12-08T04:01:44.911Z,80.60
2022-12-08T04:02:45.008Z,79.60
2022-12-08T04:03:45.135Z,79.30
2022-12-08T04:04:45.293Z,80.80
2022-12-08T04:05:45.446Z,86.50
2022-12-08T04:06:45.602Z,87.40
2022-12-08T04:07:45.814Z,88.60
2022-12-08T04:08:45.908Z,90.00
2022-12-08T04:09:46.082Z,91.20
2022-12-08T04:10:46.244Z,94.70
2022-12-08T04:11:46.396Z,92.30
2022-12-08T04:12:46.564Z,90.00
2022-12-08T04:13:46.725Z,90.00
2022-12-08T04:14:46.890Z,98.90
2022-12-08T04:15:47.068Z,97.20
2022-12-08T04:16:47.229Z,97.00
2022-12-08T04:17:47.382Z,102.20
2022-12-08T04:18:47.562Z,97.90
2022-12-08T04:19:47.713Z,104.00
2022-12-08T04:20:47.878Z,97.10
2022-12-08T04:21:48.031Z,97.60
2022-12-08T04:22:48.190Z,97.00
2022-12-08T04:23:48.402Z,107.60
2022-12-08T04:24:48.576Z,104.50
2022-12-08T04:25:48.731Z,100.70
2022-12-08T04:26:48.887Z,104.90
2022-12-08T04:27:49.046Z,104.70
2022-12-08T04:28:49.237Z,105.80
2022-12-08T04:29:49.407Z,108.30
2022-12-08T04:30:49.568Z,102.80
2022-12-08T04:31:49.753Z,106.90
2022-12-08T04:32:49.935Z,107.10
2022-12-08T04:33:50.113Z,110.00
2022-12-08T04:34:50.279Z,113.60
2022-12-08T04:35:50.437Z,111.20
2022-12-08T04:36:50.595Z,111.50
2022-12-08T04:37:50.755Z,120.10
2022-12-08T04:38:50.927Z,119.30
2022-12-08T04:39:51.081Z,126.00
2022-12-08T04:40:51.252Z,125.40
2022-12-08T04:41:51.426Z,123.70
2022-12-08T04:42:51.593Z,126.80
2022-12-08T04:43:51.766Z,133.00
2022-12-08T04:44:51.964Z,129.40
2022-12-08T04:45:52.124Z,125.70
2022-12-08T04:46:52.335Z,131.10
2022-12-08T04:47:52.482Z,133.80
2022-12-08T04:48:52.662Z,128.30
2022-12-08T04:49:52.824Z,123.70
2022-12-08T04:50:52.996Z,132.30
2022-12-08T04:51:53.153Z,126.10
2022-12-08T04:52:53.316Z,125.40
2022-12-08T04:53:53.488Z,128.10
2022-12-08T04:54:53.657Z,127.90
2022-12-08T04:55:53.821Z,137.40
2022-12-08T04:56:53.992Z,134.30
2022-12-08T04:57:54.160Z,140.40
2022-12-08T04:58:54.334Z,134.00
2022-12-08T04:59:54.514Z,136.60
2022-12-08T05:00:54.805Z,132.30
2022-12-08T05:01:55.082Z,140.10
2022-12-08T05:02:55.134Z,139.90
2022-12-08T05:03:55.312Z,144.00
2022-12-08T05:04:55.487Z,152.30
2022-12-08T05:05:55.683Z,139.00
2022-12-08T05:06:55.872Z,144.60
2022-12-08T05:07:56.139Z,141.80
2022-12-08T05:08:56.208Z,149.80
2022-12-08T05:09:56.392Z,154.10
2022-12-08T05:10:56.556Z,147.50
2022-12-08T05:11:56.725Z,159.40
2022-12-08T05:12:56.887Z,151.80
2022-12-08T05:13:57.091Z,149.00
2022-12-08T05:14:57.255Z,168.40
2022-12-08T05:15:57.492Z,167.60
2022-12-08T05:16:57.532Z,158.70
2022-12-08T05:17:57.708Z,156.80
2022-12-08T05:18:57.881Z,159.60
2022-12-08T05:19:58.045Z,166.00
2022-12-08T05:20:58.201Z,151.60
2022-12-08T05:21:58.365Z,159.50
2022-12-08T05:22:58.509Z,163.80
2022-12-08T05:23:58.713Z,159.20
2022-12-08T05:24:58.922Z,152.80
2022-12-08T05:25:59.129Z,155.80
2022-12-08T05:26:59.303Z,158.30
2022-12-08T05:28:24.609Z,160.30
2022-12-08T05:29:00.632Z,159.70
2022-12-08T05:29:59.795Z,158.90
2022-12-08T05:30:59.954Z,160.10
2022-12-08T05:32:00.210Z,154.70
2022-12-08T05:33:00.301Z,164.30
2022-12-08T05:34:03.131Z,159.40
2022-12-08T05:35:00.603Z,158.50
2022-12-08T05:36:00.786Z,159.90
2022-12-08T05:37:00.943Z,163.40
2022-12-08T05:38:01.132Z,160.50
2022-12-08T05:39:01.292Z,162.20
2022-12-08T05:40:01.831Z,168.40
2022-12-08T05:41:01.613Z,163.60
2022-12-08T05:42:01.799Z,169.40
2022-12-08T05:43:01.963Z,159.70
2022-12-08T05:44:02.126Z,164.90
2022-12-08T05:45:02.333Z,169.80
2022-12-08T05:46:02.613Z,164.10
2022-12-08T05:47:02.675Z,183.90
2022-12-08T05:48:02.847Z,172.30
2022-12-08T05:49:03.064Z,170.30
2022-12-08T05:50:03.726Z,161.00
2022-12-08T05:51:03.442Z,160.50
2022-12-08T05:52:03.760Z,164.50
2022-12-08T05:53:03.820Z,168.90
2022-12-08T05:54:04.002Z,167.70
2022-12-08T05:55:04.161Z,158.40
2022-12-08T05:56:04.350Z,156.60
2022-12-08T05:57:04.537Z,166.30
2022-12-08T05:58:08.038Z,168.90
2022-12-08T05:59:04.816Z,167.20
2022-12-08T06:00:05.320Z,164.00
2022-12-08T06:01:05.153Z,163.50
2022-12-08T06:02:05.591Z,168.70
2022-12-08T06:03:05.634Z,161.90
2022-12-08T06:04:05.719Z,157.70
2022-12-08T06:05:05.778Z,174.20
2022-12-08T06:06:05.954Z,166.90
2022-12-08T06:07:06.118Z,165.60
2022-12-08T06:08:06.337Z,157.30
2022-12-08T06:09:06.399Z,164.40
2022-12-08T06:10:06.925Z,161.30
2022-12-08T06:11:06.682Z,162.70
2022-12-08T06:12:06.855Z,161.10
2022-12-08T06:13:07.035Z,154.70
2022-12-08T06:14:07.212Z,162.40
2022-12-08T06:15:07.383Z,166.40
2022-12-08T06:16:07.594Z,155.90
2022-12-08T06:17:07.818Z,160.50
2022-12-08T06:18:07.958Z,158.60
2022-12-08T06:19:08.139Z,161.30
2022-12-08T06:20:08.321Z,163.80
2022-12-08T06:21:08.506Z,155.30
2022-12-08T06:22:08.742Z,153.80
2022-12-08T06:23:08.828Z,159.80
2022-12-08T06:24:09.046Z,158.60
2022-12-08T06:25:10.255Z,147.00
2022-12-08T06:26:09.233Z,152.00
2022-12-08T06:27:09.409Z,149.30
2022-12-08T06:28:09.591Z,152.40
2022-12-08T06:29:09.789Z,154.90
2022-12-08T06:30:09.992Z,153.50
2022-12-08T06:31:10.171Z,158.20
2022-12-08T06:32:10.406Z,155.10
2022-12-08T06:33:10.491Z,151.40
2022-12-08T06:34:10.707Z,155.70
2022-12-08T06:35:10.785Z,150.80
2022-12-08T06:36:11.107Z,142.70
2022-12-08T06:37:11.086Z,145.40
2022-12-08T06:38:11.283Z,145.80
2022-12-08T06:39:11.462Z,145.60
2022-12-08T06:40:11.632Z,146.40
2022-12-08T06:41:11.816Z,147.40
2022-12-08T06:42:11.983Z,140.30
2022-12-08T06:43:12.154Z,143.20
2022-12-08T06:44:12.341Z,148.20
2022-12-08T06:45:12.519Z,146.40
2022-12-08T06:46:12.850Z,146.60
2022-12-08T06:47:12.824Z,148.50
2022-12-08T06:48:13.019Z,150.30
2022-12-08T06:49:13.230Z,144.90
2022-12-08T06:50:13.396Z,149.10
2022-12-08T06:51:13.570Z,144.00
2022-12-08T06:52:13.768Z,141.70
2022-12-08T06:53:13.949Z,154.40
2022-12-08T06:54:14.269Z,144.50
2022-12-08T06:55:35.473Z,156.50
2022-12-08T06:56:15.426Z,161.80
2022-12-08T06:57:14.584Z,157.50
2022-12-08T06:58:14.775Z,154.50
2022-12-08T06:59:15.975Z,146.10
2022-12-08T07:00:15.156Z,146.00
2022-12-08T07:01:15.449Z,149.60
2022-12-08T07:02:15.591Z,141.30
2022-12-08T07:03:15.635Z,139.50
2022-12-08T07:04:15.824Z,146.90
2022-12-08T07:05:15.988Z,139.40
2022-12-08T07:06:16.177Z,136.90
2022-12-08T07:07:16.338Z,135.00
2022-12-08T07:08:16.553Z,138.50
2022-12-08T07:09:16.710Z,138.00
2022-12-08T07:10:16.884Z,132.30
2022-12-08T07:11:21.605Z,144.40
2022-12-08T07:12:18.225Z,134.50
2022-12-08T07:13:17.373Z,139.40
2022-12-08T07:14:17.563Z,138.10
2022-12-08T07:15:17.730Z,137.60
2022-12-08T07:16:17.987Z,143.20
2022-12-08T07:17:18.087Z,133.70
2022-12-08T07:18:18.248Z,140.00
2022-12-08T07:19:18.420Z,131.40
2022-12-08T07:20:18.589Z,134.20
2022-12-08T07:21:18.762Z,136.50
2022-12-08T07:22:18.946Z,129.90
2022-12-08T07:23:19.109Z,129.40
2022-12-08T07:24:19.290Z,137.50
2022-12-08T07:25:19.453Z,140.20
2022-12-08T07:26:19.631Z,133.70
2022-12-08T07:27:19.808Z,136.20
2022-12-08T07:28:19.981Z,141.00
2022-12-08T07:29:25.936Z,141.10
2022-12-08T07:30:21.268Z,140.70
2022-12-08T07:31:20.495Z,133.30
2022-12-08T07:32:20.571Z,136.10
2022-12-08T07:33:20.778Z,131.80
2022-12-08T07:34:20.954Z,141.90
2022-12-08T07:35:22.179Z,131.30
2022-12-08T07:36:21.314Z,131.20
2022-12-08T07:37:21.498Z,142.50
2022-12-08T07:38:21.704Z,141.00
2022-12-08T07:39:21.890Z,133.10
2022-12-08T07:40:22.122Z,130.90
2022-12-08T07:41:23.511Z,129.10
2022-12-08T07:42:22.390Z,132.90
2022-12-08T07:43:22.586Z,127.80
2022-12-08T07:44:22.793Z,129.70
2022-12-08T07:45:28.308Z,124.60
2022-12-08T07:46:24.173Z,191.20
2022-12-08T07:47:23.213Z,146.00
2022-12-08T07:48:23.389Z,160.90
2022-12-08T07:49:23.578Z,127.50
2022-12-08T07:50:23.840Z,129.90
2022-12-08T07:51:23.904Z,127.70
2022-12-08T07:52:24.192Z,123.70
2022-12-08T07:53:24.280Z,127.20
2022-12-08T07:54:24.469Z,126.30
2022-12-08T07:55:24.637Z,121.10
2022-12-08T07:56:24.806Z,124.50
2022-12-08T07:57:24.979Z,118.20
2022-12-08T07:58:25.165Z,120.40
2022-12-08T07:59:25.346Z,122.60
2022-12-08T08:00:25.557Z,115.80
2022-12-08T08:01:25.840Z,113.20
2022-12-08T08:02:26.476Z,121.70
2022-12-08T08:03:25.951Z,116.60
2022-12-08T08:04:26.157Z,123.40
2022-12-08T08:05:26.337Z,122.50
2022-12-08T08:06:26.432Z,119.80
2022-12-08T08:07:26.623Z,121.30
2022-12-08T08:08:26.967Z,126.70
2022-12-08T08:09:26.939Z,120.80
2022-12-08T08:10:27.172Z,110.80
2022-12-08T08:11:27.200Z,111.70
2022-12-08T08:12:32.104Z,121.90
2022-12-08T08:13:28.506Z,128.10
2022-12-08T08:14:27.676Z,116.80
2022-12-08T08:15:27.859Z,116.90
2022-12-08T08:16:28.579Z,118.70
2022-12-08T08:17:28.237Z,109.60
2022-12-08T08:18:28.321Z,117.10
2022-12-08T08:19:28.486Z,117.00
2022-12-08T08:20:28.682Z,116.70
2022-12-08T08:21:45.165Z,123.40
2022-12-08T08:22:30.047Z,117.60
2022-12-08T08:23:29.212Z,116.60
2022-12-08T08:24:29.421Z,122.30
2022-12-08T08:25:29.587Z,114.70
2022-12-08T08:26:29.765Z,117.50
2022-12-08T08:27:29.924Z,118.20
2022-12-08T08:28:30.087Z,126.60
2022-12-08T08:29:30.267Z,119.60
2022-12-08T08:30:30.446Z,130.40
2022-12-08T08:31:30.653Z,115.10
2022-12-08T08:32:30.829Z,116.90
2022-12-08T08:33:31.010Z,121.60
2022-12-08T08:34:31.218Z,121.70
2022-12-08T08:35:31.263Z,126.60
2022-12-08T08:36:31.434Z,124.20
2022-12-08T08:37:31.584Z,129.20
2022-12-08T08:38:31.775Z,133.10
2022-12-08T08:39:32.003Z,130.50
2022-12-08T08:40:32.081Z,133.70
2022-12-08T08:41:32.228Z,123.50
2022-12-08T08:42:32.392Z,120.10
2022-12-08T08:43:37.888Z,119.70
2022-12-08T08:44:33.713Z,116.10
2022-12-08T08:45:32.754Z,122.70
2022-12-08T08:46:33.062Z,121.30
2022-12-08T08:47:33.065Z,128.00
2022-12-08T08:48:33.217Z,122.20
2022-12-08T08:49:33.376Z,109.40
2022-12-08T08:50:37.503Z,111.10
2022-12-08T08:51:33.654Z,103.50
2022-12-08T08:52:33.812Z,104.20
2022-12-08T08:53:33.970Z,108.90
2022-12-08T08:54:34.156Z,113.80
2022-12-08T08:55:34.292Z,108.80
2022-12-08T08:56:34.509Z,106.90
2022-12-08T08:57:35.617Z,120.90
2022-12-08T08:58:34.764Z,152.90
2022-12-08T08:59:34.934Z,211.10
2022-12-08T09:00:35.112Z,184.60
2022-12-08T09:01:35.297Z,203.10
2022-12-08T09:02:35.461Z,132.90
2022-12-08T09:03:35.613Z,170.30
2022-12-08T09:04:35.833Z,112.30
2022-12-08T09:05:35.876Z,175.50
2022-12-08T09:06:36.120Z,147.50
2022-12-08T09:07:36.318Z,154.80
2022-12-08T09:08:36.341Z,144.50
2022-12-08T09:09:36.504Z,148.20
2022-12-08T09:10:36.665Z,153.40
2022-12-08T09:11:36.799Z,162.10
2022-12-08T09:12:36.927Z,186.60
2022-12-08T09:13:37.081Z,139.50
2022-12-08T09:14:37.242Z,133.80
2022-12-08T09:15:37.416Z,122.10
2022-12-08T09:16:41.916Z,147.50
2022-12-08T09:17:38.656Z,110.60
2022-12-08T09:18:37.776Z,134.10
2022-12-08T09:19:37.950Z,113.10
2022-12-08T09:20:38.095Z,123.90
2022-12-08T09:21:38.238Z,104.70
2022-12-08T09:22:38.375Z,108.60
2022-12-08T09:23:38.514Z,110.10
2022-12-08T09:24:38.679Z,116.50
2022-12-08T09:25:38.820Z,159.90
2022-12-08T09:26:39.002Z,142.50
2022-12-08T09:27:39.125Z,143.80
2022-12-08T09:28:39.247Z,125.20
2022-12-08T09:29:39.416Z,122.70
2022-12-08T09:30:39.524Z,110.70
2022-12-08T09:31:39.728Z,113.50
2022-12-08T09:32:39.759Z,176.70
2022-12-08T09:33:39.920Z,113.50
2022-12-08T09:34:40.062Z,112.70
2022-12-08T09:35:40.193Z,111.40
2022-12-08T09:36:40.319Z,162.70
2022-12-08T09:37:40.456Z,93.30
2022-12-08T09:38:40.584Z,110.10
2022-12-08T09:39:40.744Z,99.90
2022-12-08T09:40:40.869Z,100.20
2022-12-08T09:41:47.638Z,102.20
2022-12-08T09:42:42.181Z,103.90
2022-12-08T09:43:41.317Z,111.80
2022-12-08T09:44:41.462Z,126.40
2022-12-08T09:45:41.637Z,108.50
2022-12-08T09:46:41.775Z,112.30
2022-12-08T09:47:41.822Z,141.50
2022-12-08T09:48:41.972Z,109.10
2022-12-08T09:49:42.146Z,133.90
2022-12-08T09:50:42.343Z,104.40
2022-12-08T09:51:42.462Z,86.90
2022-12-08T09:52:42.596Z,107.50
2022-12-08T09:53:42.693Z,130.00
2022-12-08T09:54:42.841Z,136.50
2022-12-08T09:55:42.975Z,122.60
2022-12-08T09:56:43.125Z,113.40
2022-12-08T09:57:56.094Z,112.50
2022-12-08T09:58:44.358Z,107.20
2022-12-08T09:59:44.217Z,113.50
2022-12-08T10:00:43.676Z,126.30
2022-12-08T10:01:43.920Z,115.30
2022-12-08T10:02:43.984Z,120.50
2022-12-08T10:03:44.100Z,106.70
2022-12-08T10:04:44.331Z,112.70
2022-12-08T10:05:44.363Z,101.60
2022-12-08T10:06:44.493Z,110.20
2022-12-08T10:07:44.662Z,109.30
2022-12-08T10:08:44.761Z,134.80
2022-12-08T10:09:44.902Z,98.60
2022-12-08T10:10:45.018Z,117.20
2022-12-08T10:11:45.147Z,120.60
2022-12-08T10:12:45.248Z,146.40
2022-12-08T10:13:45.370Z,95.30
2022-12-08T10:14:45.476Z,151.80
2022-12-08T10:15:45.663Z,103.70
2022-12-08T10:16:45.837Z,104.90
2022-12-08T10:17:45.943Z,97.10
2022-12-08T10:18:46.054Z,85.60
2022-12-08T10:19:46.182Z,125.70
2022-12-08T10:20:46.294Z,116.90
2022-12-08T10:21:46.425Z,118.40
2022-12-08T10:22:46.545Z,109.30
2022-12-08T10:23:46.723Z,116.70
2022-12-08T10:24:46.831Z,118.70
2022-12-08T10:25:46.988Z,116.70
2022-12-08T10:26:47.088Z,105.20
2022-12-08T10:27:47.252Z,102.50
2022-12-08T10:28:47.397Z,90.10
2022-12-08T10:29:47.543Z,90.70
2022-12-08T10:30:47.672Z,106.30
2022-12-08T10:31:47.898Z,113.60
2022-12-08T10:32:48.027Z,107.50
2022-12-08T10:33:48.160Z,95.00
2022-12-08T10:34:52.168Z,93.90
2022-12-08T10:35:49.369Z,104.30
2022-12-08T10:36:48.483Z,107.10
2022-12-08T10:37:48.661Z,84.90
2022-12-08T10:38:48.786Z,85.70
2022-12-08T10:39:48.967Z,100.50
2022-12-08T10:40:49.090Z,94.60
2022-12-08T10:41:49.212Z,112.20
2022-12-08T10:42:49.344Z,87.90
2022-12-08T10:43:49.467Z,84.30
2022-12-08T10:44:49.611Z,115.70
2022-12-08T10:45:49.755Z,106.90
2022-12-08T10:46:49.933Z,109.00
2022-12-08T10:47:55.241Z,95.30
2022-12-08T10:48:51.208Z,108.40
2022-12-08T10:49:50.343Z,88.70
2022-12-08T10:50:50.490Z,102.90
2022-12-08T10:51:50.637Z,131.20
2022-12-08T10:52:50.787Z,117.40
2022-12-08T10:53:50.941Z,110.30
2022-12-08T10:54:51.397Z,101.50
2022-12-08T10:55:51.271Z,96.60
2022-12-08T10:56:51.276Z,91.60
2022-12-08T10:57:51.424Z,74.00
2022-12-08T10:58:51.554Z,91.30
2022-12-08T10:59:51.688Z,68.40
2022-12-08T11:00:51.905Z,91.30
2022-12-08T11:01:52.048Z,94.80
2022-12-08T11:02:52.040Z,77.50
2022-12-08T11:03:52.175Z,82.10
2022-12-08T11:04:52.343Z,96.90
2022-12-08T11:05:52.483Z,81.70
2022-12-08T11:06:52.621Z,89.20
2022-12-08T11:07:52.873Z,86.90
2022-12-08T11:08:52.914Z,74.10
2022-12-08T11:09:53.082Z,80.60
2022-12-08T11:10:53.196Z,80.60
2022-12-08T11:11:53.364Z,73.40
2022-12-08T11:12:53.502Z,72.10
2022-12-08T11:13:53.650Z,79.90
2022-12-08T11:14:53.770Z,74.90
2022-12-08T11:15:53.989Z,75.50
2022-12-08T11:16:54.087Z,96.60
2022-12-08T11:17:57.588Z,79.80
2022-12-08T11:18:54.251Z,76.70
2022-12-08T11:19:54.401Z,90.60
2022-12-08T11:20:54.528Z,78.60
2022-12-08T11:21:54.705Z,78.30
2022-12-08T11:22:54.836Z,95.60
2022-12-08T11:23:54.967Z,76.90
2022-12-08T11:24:55.175Z,86.90
2022-12-08T11:25:55.256Z,77.40
2022-12-08T11:26:55.400Z,83.60
2022-12-08T11:27:55.578Z,78.40
2022-12-08T11:28:55.728Z,81.40
2022-12-08T11:29:55.886Z,83.20
2022-12-08T11:30:56.033Z,80.90
2022-12-08T11:31:56.366Z,80.20
2022-12-08T11:32:56.303Z,79.60
2022-12-08T11:33:56.443Z,78.40
2022-12-08T11:34:56.578Z,87.30
2022-12-08T11:35:56.715Z,90.70
2022-12-08T11:36:56.855Z,90.20
2022-12-08T11:38:13.577Z,85.40
2022-12-08T11:38:58.136Z,94.20
2022-12-08T11:39:57.272Z,87.20
2022-12-08T11:40:57.412Z,95.20
2022-12-08T11:41:57.557Z,94.10
2022-12-08T11:42:57.721Z,97.20
2022-12-08T11:43:57.866Z,92.40
2022-12-08T11:44:58.016Z,97.70
2022-12-08T11:45:58.221Z,100.90
2022-12-08T11:46:58.239Z,93.90
2022-12-08T11:47:58.401Z,98.80
2022-12-08T11:49:04.198Z,102.00
2022-12-08T11:49:59.694Z,101.00
2022-12-08T11:50:58.838Z,95.40
2022-12-08T11:51:59.008Z,99.30
2022-12-08T11:52:59.158Z,99.70
2022-12-08T11:53:59.395Z,101.50
2022-12-08T11:54:59.420Z,102.00
2022-12-08T11:55:59.598Z,97.00
2022-12-08T11:56:59.751Z,84.30
2022-12-08T11:57:59.953Z,97.10
2022-12-08T11:59:00.001Z,93.70
2022-12-08T12:00:00.153Z,94.40
2022-12-08T12:01:00.286Z,98.90
2022-12-08T12:02:00.460Z,95.20
2022-12-08T12:03:00.699Z,116.80
2022-12-08T12:04:00.763Z,110.30
2022-12-08T12:05:00.896Z,122.70
2022-12-08T12:07:02.140Z,92.20
2022-12-08T12:08:01.319Z,90.20
2022-12-08T12:09:01.457Z,94.30
2022-12-08T12:10:01.731Z,95.10
2022-12-08T12:11:01.705Z,93.80
2022-12-08T12:12:01.860Z,97.10
2022-12-08T12:13:02.022Z,90.50
2022-12-08T12:14:02.148Z,95.40
2022-12-08T12:15:02.280Z,94.40
2022-12-08T12:16:02.411Z,92.40
2022-12-08T12:17:02.626Z,82.80
2022-12-08T12:18:02.679Z,77.80
2022-12-08T12:19:02.821Z,76.00
2022-12-08T12:20:03.348Z,78.90
2022-12-08T12:21:03.113Z,77.90
2022-12-08T12:22:03.233Z,86.20
2022-12-08T12:23:03.389Z,79.90
2022-12-08T12:24:03.552Z,83.70
2022-12-08T12:25:03.695Z,83.10
2022-12-08T12:26:03.850Z,84.60
2022-12-08T12:27:03.967Z,86.80
2022-12-08T12:28:04.142Z,86.80
2022-12-08T12:29:04.283Z,87.00
2022-12-08T12:30:04.507Z,83.90
2022-12-08T12:31:04.604Z,87.70
2022-12-08T12:32:04.715Z,89.20
2022-12-08T12:33:04.873Z,89.00
2022-12-08T12:34:05.025Z,87.80
2022-12-08T12:35:05.152Z,84.00
2022-12-08T12:36:05.310Z,87.90
2022-12-08T12:37:05.434Z,92.70
2022-12-08T12:38:05.675Z,94.90
2022-12-08T12:39:05.697Z,97.00
2022-12-08T12:40:06.240Z,90.80
2022-12-08T12:41:05.959Z,87.00
2022-12-08T12:42:06.115Z,94.80
2022-12-08T12:43:06.275Z,94.20